createdAt,value
2023-03-16T00:00:32.875Z,-1.30
2023-03-16T00:05:36.940Z,-1.30
2023-03-16T00:10:39.675Z,-1.50
2023-03-16T00:15:42.394Z,-1.40
2023-03-16T00:20:46.428Z,-1.40
2023-03-16T00:25:49.113Z,-1.40
2023-03-16T00:30:52.153Z,-1.40
2023-03-16T00:36:02.602Z,-1.50
2023-03-16T00:41:08.119Z,-1.40
2023-03-16T00:46:12.997Z,-1.40
2023-03-16T00:51:18.771Z,-1.40
2023-03-16T00:56:21.564Z,-1.30
2023-03-16T01:01:24.863Z,-1.30
2023-03-16T01:06:29.249Z,-1.30
2023-03-16T01:11:33.709Z,-1.10
2023-03-16T01:16:36.758Z,-1.00
2023-03-16T01:21:40.914Z,-0.90
2023-03-16T01:26:45.089Z,-0.90
2023-03-16T01:31:48.400Z,-0.90
2023-03-16T01:36:52.462Z,-0.70
2023-03-16T01:41:55.270Z,-1.00
2023-03-16T01:46:57.974Z,-0.90
2023-03-16T01:52:07.774Z,-1.00
2023-03-16T01:57:12.653Z,-1.20
2023-03-16T02:02:18.402Z,-1.30
2023-03-16T02:07:25.216Z,-1.30
2023-03-16T02:12:29.249Z,-1.60
2023-03-16T02:17:33.214Z,-1.70
2023-03-16T02:22:38.821Z,-1.80
2023-03-16T02:27:47.246Z,-1.40
2023-03-16T02:32:53.125Z,-1.00
2023-03-16T02:37:55.833Z,-1.10
2023-03-16T02:43:03.651Z,-1.10
2023-03-16T02:48:14.634Z,-1.30
2023-03-16T02:53:18.053Z,-1.10
2023-03-16T02:58:21.082Z,-1.00
2023-03-16T03:03:25.490Z,-1.20
2023-03-16T03:08:28.426Z,-1.20
2023-03-16T03:13:31.580Z,-1.10
2023-03-16T03:18:35.568Z,-1.30
2023-03-16T03:23:38.265Z,-1.20
2023-03-16T03:28:41.220Z,-1.30
2023-03-16T03:33:45.364Z,-1.40
2023-03-16T03:38:49.548Z,-1.40
2023-03-16T03:43:52.237Z,-1.30
2023-03-16T03:48:58.293Z,-1.50
2023-03-16T03:54:00.956Z,-1.50
2023-03-16T03:59:03.721Z,-1.50
2023-03-16T04:04:07.728Z,-1.40
2023-03-16T04:09:11.386Z,-1.40
2023-03-16T04:14:14.164Z,-1.50
2023-03-16T04:19:18.239Z,-1.50
2023-03-16T04:24:22.435Z,-1.50
2023-03-16T04:29:25.439Z,-1.80
2023-03-16T04:34:31.952Z,-1.80
2023-03-16T04:39:34.601Z,-1.80
2023-03-16T04:44:43.989Z,-1.80
2023-03-16T04:49:47.937Z,-1.70
2023-03-16T04:54:51.715Z,-1.80
2023-03-16T04:59:54.365Z,-1.80
2023-03-16T05:04:58.347Z,-1.90
2023-03-16T05:10:01.033Z,-1.70
2023-03-16T05:15:03.965Z,-1.80
2023-03-16T05:20:14.052Z,-1.80
2023-03-16T05:25:19.854Z,-1.80
2023-03-16T05:30:22.626Z,-1.70
2023-03-16T05:35:28.024Z,-1.90
2023-03-16T05:40:31.467Z,-2.00
2023-03-16T05:45:34.245Z,-1.90
2023-03-16T05:50:38.276Z,-1.90
2023-03-16T05:55:41.313Z,-1.90
2023-03-16T06:00:44.055Z,-1.80
2023-03-16T06:05:48.395Z,-1.60
2023-03-16T06:10:51.007Z,-1.40
2023-03-16T06:15:53.732Z,-1.20
2023-03-16T06:20:57.750Z,-1.00
2023-03-16T06:26:01.237Z,-0.80
2023-03-16T06:31:03.983Z,-0.60
2023-03-16T06:36:08.789Z,-0.60
2023-03-16T06:41:12.170Z,-0.40
2023-03-16T06:46:14.862Z,-0.30
2023-03-16T06:51:18.946Z,-0.20
2023-03-16T06:56:21.578Z,-0.20
2023-03-16T07:01:24.659Z,-0.10
2023-03-16T07:06:28.766Z,0.20
2023-03-16T07:11:32.447Z,0.40
2023-03-16T07:16:35.331Z,0.60
2023-03-16T07:21:40.760Z,0.70
2023-03-16T07:26:43.716Z,0.90
2023-03-16T07:31:46.512Z,1.10
2023-03-16T07:36:52.638Z,1.40
2023-03-16T07:41:55.395Z,1.80
2023-03-16T07:46:58.334Z,2.00
2023-03-16T07:52:02.601Z,2.10
2023-03-16T07:57:05.298Z,2.50
2023-03-16T08:02:08.154Z,2.90
2023-03-16T08:07:13.003Z,4.40
2023-03-16T08:12:16.019Z,8.10
2023-03-16T08:17:18.749Z,12.20
2023-03-16T08:22:22.801Z,15.20
2023-03-16T08:27:25.984Z,17.30
2023-03-16T08:32:28.741Z,14.40
2023-03-16T08:37:32.720Z,16.00
2023-03-16T08:42:35.377Z,15.70
2023-03-16T08:47:38.602Z,17.80
2023-03-16T08:52:42.793Z,18.90
2023-03-16T08:57:46.379Z,20.90
2023-03-16T09:02:49.050Z,23.80
2023-03-16T09:07:53.591Z,24.60
2023-03-16T09:12:56.607Z,21.80
2023-03-16T09:18:00.610Z,21.50
2023-03-16T09:23:04.910Z,23.30
2023-03-16T09:28:08.616Z,23.30
2023-03-16T09:33:11.365Z,24.60
2023-03-16T09:38:15.706Z,22.50
2023-03-16T09:43:30.500Z,23.20
2023-03-16T09:48:36.458Z,23.70
2023-03-16T09:53:41.895Z,22.80
2023-03-16T09:58:45.655Z,23.80
2023-03-16T10:04:02.707Z,27.10
2023-03-16T10:09:18.974Z,28.50
2023-03-16T10:14:26.403Z,28.60
2023-03-16T10:19:35.571Z,29.10
2023-03-16T10:24:49.199Z,28.50
2023-03-16T10:29:51.987Z,30.40
2023-03-16T10:34:59.592Z,28.80
2023-03-16T10:40:09.094Z,31.50
2023-03-16T10:45:25.324Z,33.30
2023-03-16T10:50:28.433Z,30.80
2023-03-16T10:55:41.767Z,29.40
2023-03-16T11:00:47.060Z,26.80
2023-03-16T11:05:57.387Z,29.30
2023-03-16T11:11:09.264Z,29.30
2023-03-16T11:16:23.908Z,26.80
2023-03-16T11:21:38.535Z,27.20
2023-03-16T11:26:43.246Z,28.30
2023-03-16T11:31:53.297Z,29.60
2023-03-16T11:36:59.857Z,34.10
2023-03-16T11:42:20.942Z,29.40
2023-03-16T11:47:36.641Z,31.10
2023-03-16T11:52:53.141Z,29.40
2023-03-16T11:58:08.216Z,28.20
2023-03-16T12:03:42.481Z,29.40
2023-03-16T12:09:04.370Z,27.00
2023-03-16T12:14:19.753Z,29.30
2023-03-16T12:19:25.364Z,29.40
2023-03-16T12:24:32.398Z,28.10
2023-03-16T12:29:42.802Z,27.50
2023-03-16T12:34:53.649Z,27.10
2023-03-16T12:40:09.041Z,27.20
2023-03-16T12:45:18.121Z,23.90
2023-03-16T12:50:21.478Z,24.30
2023-03-16T12:55:27.987Z,26.30
2023-03-16T13:00:37.582Z,23.20
2023-03-16T13:05:46.280Z,21.80
2023-03-16T13:11:02.065Z,21.70
2023-03-16T13:16:09.412Z,23.10
2023-03-16T13:21:18.975Z,26.10
2023-03-16T13:26:35.396Z,23.60
2023-03-16T13:31:42.700Z,21.80
2023-03-16T13:36:46.317Z,21.40
2023-03-16T13:42:01.034Z,19.00
2023-03-16T13:47:07.338Z,18.90
2023-03-16T13:52:15.617Z,21.30
2023-03-16T13:57:21.713Z,20.20
2023-03-16T14:02:26.105Z,19.50
2023-03-16T14:07:28.802Z,21.00
2023-03-16T14:12:31.452Z,19.00
2023-03-16T14:17:35.472Z,20.90
2023-03-16T14:22:39.093Z,19.50
2023-03-16T14:27:47.397Z,18.20
2023-03-16T14:33:00.092Z,19.40
2023-03-16T14:38:21.293Z,18.30
2023-03-16T14:43:29.660Z,18.80
2023-03-16T14:48:35.284Z,18.40
2023-03-16T14:53:38.243Z,18.10
2023-03-16T14:58:41.691Z,18.70
2023-03-16T15:03:46.573Z,17.00
2023-03-16T15:08:50.898Z,17.30
2023-03-16T15:14:03.798Z,16.80
2023-03-16T15:19:08.276Z,15.50
2023-03-16T15:24:14.359Z,15.10
2023-03-16T15:29:19.753Z,15.50
2023-03-16T15:34:23.860Z,15.20
2023-03-16T15:39:41.502Z,15.00
2023-03-16T15:44:45.202Z,14.40
2023-03-16T15:49:49.529Z,14.70
2023-03-16T15:54:52.886Z,14.10
2023-03-16T15:59:55.644Z,13.30
2023-03-16T16:05:00.732Z,12.40
2023-03-16T16:10:03.471Z,12.00
2023-03-16T16:15:21.597Z,11.30
2023-03-16T16:20:28.295Z,10.70
2023-03-16T16:25:39.144Z,10.30
2023-03-16T16:30:41.832Z,9.80
2023-03-16T16:35:45.870Z,9.40
2023-03-16T16:40:49.050Z,9.10
2023-03-16T16:45:51.759Z,8.90
2023-03-16T16:50:56.115Z,8.80
2023-03-16T16:55:58.832Z,8.60
2023-03-16T17:01:01.937Z,8.50
2023-03-16T17:06:06.849Z,8.40
2023-03-16T17:11:14.140Z,8.20
2023-03-16T17:16:21.305Z,7.90
2023-03-16T17:21:28.254Z,8.00
2023-03-16T17:26:35.570Z,7.80
2023-03-16T17:31:41.923Z,7.80
2023-03-16T17:36:46.159Z,7.70
2023-03-16T17:41:50.155Z,7.40
2023-03-16T17:46:54.490Z,7.40
2023-03-16T17:51:58.813Z,7.30
2023-03-16T17:57:01.656Z,7.30
2023-03-16T18:02:05.629Z,7.10
2023-03-16T18:07:14.089Z,7.00
2023-03-16T18:12:16.759Z,7.00
2023-03-16T18:17:26.955Z,7.10
2023-03-16T18:22:31.038Z,7.00
2023-03-16T18:27:34.488Z,7.00
2023-03-16T18:32:37.602Z,7.00
2023-03-16T18:37:42.239Z,7.10
2023-03-16T18:42:45.166Z,7.10
2023-03-16T18:47:51.980Z,7.10
2023-03-16T18:52:57.272Z,7.20
2023-03-16T18:58:00.327Z,7.10
2023-03-16T19:03:04.108Z,7.20
2023-03-16T19:08:08.194Z,7.20
2023-03-16T19:13:17.069Z,7.20
2023-03-16T19:18:20.157Z,7.20
2023-03-16T19:23:29.183Z,7.20
2023-03-16T19:28:36.470Z,7.10
2023-03-16T19:33:40.888Z,7.10
2023-03-16T19:38:46.245Z,6.90
2023-03-16T19:43:48.984Z,6.70
2023-03-16T19:48:54.878Z,6.60
2023-03-16T20:47:13.046Z,6.20
2023-03-16T20:59:20.529Z,6.20
2023-03-16T21:05:03.590Z,6.10
2023-03-16T21:10:45.261Z,5.90
2023-03-16T21:41:46.908Z,5.60
2023-03-16T21:54:09.077Z,5.60
2023-03-16T22:06:54.621Z,5.50
2023-03-16T22:37:31.083Z,5.40
2023-03-16T22:42:37.082Z,5.30
2023-03-16T22:47:39.802Z,5.30
2023-03-16T22:52:45.495Z,5.30
2023-03-16T22:57:49.903Z,5.30
2023-03-16T23:02:53.165Z,5.20
2023-03-16T23:07:57.757Z,5.30
2023-03-16T23:13:01.981Z,5.20
2023-03-16T23:18:05.034Z,5.40
2023-03-16T23:23:09.101Z,5.50
2023-03-16T23:28:16.160Z,5.60
2023-03-16T23:33:18.795Z,5.60
2023-03-16T23:38:22.833Z,5.60
2023-03-16T23:43:25.663Z,5.60
2023-03-16T23:48:28.460Z,5.70
2023-03-16T23:53:32.576Z,5.50
2023-03-16T23:58:35.490Z,5.60
